DCMPY ETNL-EDSB
Flight info
| Callsign | DCMPY |
|---|---|
| Flight time | 1h 6m |
| Altitude | 40000 |
| Route | TAGOB DCT BKD DCT GARLU DCT KEMAD DCT MASEK DCT OSBIT DCT KRH KRH1L |
| Aircraft | LJ35/M-SGHRWXY/SB1 |
Departure
| Time | 2026-05-08 18:45 |
|---|---|
| Airport | Rostock-Laage Airport (ETNL) |
Arrival
| Time | 2026-05-08 19:51 |
|---|---|
| Airport | Karlsruhe Baden-Baden Airport (EDSB) |
| Time | Latitude | Longitude | Altitude | Speed | Heading |
|---|---|---|---|---|---|
| 2026-05-08 18:26 | 53.91467 | 12.29033 | 141 ft | 0 kts | 8° |
| 2026-05-08 18:40 | 53.91475 | 12.29034 | 141 ft | 4 kts | 9° |
| 2026-05-08 18:41 | 53.91505 | 12.28993 | 141 ft | 10 kts | 273° |
| 2026-05-08 18:41 | 53.91520 | 12.28844 | 141 ft | 16 kts | 277° |
| 2026-05-08 18:41 | 53.91538 | 12.28618 | 141 ft | 22 kts | 278° |
| 2026-05-08 18:41 | 53.91562 | 12.28331 | 141 ft | 27 kts | 277° |
| 2026-05-08 18:42 | 53.91587 | 12.28024 | 142 ft | 25 kts | 277° |
| 2026-05-08 18:42 | 53.91611 | 12.27730 | 141 ft | 26 kts | 277° |
| 2026-05-08 18:42 | 53.91634 | 12.27418 | 141 ft | 27 kts | 277° |
| 2026-05-08 18:42 | 53.91660 | 12.27091 | 141 ft | 30 kts | 278° |
| 2026-05-08 18:43 | 53.91690 | 12.26736 | 141 ft | 30 kts | 277° |
| 2026-05-08 18:43 | 53.91720 | 12.26360 | 141 ft | 29 kts | 278° |
| 2026-05-08 18:43 | 53.91740 | 12.26112 | 141 ft | 17 kts | 280° |
| 2026-05-08 18:43 | 53.91770 | 12.26015 | 141 ft | 7 kts | 330° |
| 2026-05-08 18:44 | 53.91861 | 12.26037 | 142 ft | 16 kts | 7° |
| 2026-05-08 18:44 | 53.91954 | 12.26105 | 140 ft | 14 kts | 79° |
| 2026-05-08 18:44 | 53.91952 | 12.26153 | 140 ft | 0 kts | 99° |
| 2026-05-08 18:44 | 53.91923 | 12.26489 | 142 ft | 94 kts | 97° |
| 2026-05-08 18:45 | 53.91785 | 12.28151 | 434 ft | 163 kts | 98° |
| 2026-05-08 18:45 | 53.91549 | 12.30430 | 1112 ft | 225 kts | 99° |
| 2026-05-08 18:45 | 53.91279 | 12.32818 | 2002 ft | 183 kts | 101° |
| 2026-05-08 18:45 | 53.91049 | 12.34746 | 2511 ft | 156 kts | 101° |
| 2026-05-08 18:46 | 53.90829 | 12.36631 | 2990 ft | 168 kts | 102° |
| 2026-05-08 18:46 | 53.90588 | 12.38655 | 3486 ft | 181 kts | 101° |
| 2026-05-08 18:46 | 53.90392 | 12.40803 | 4077 ft | 184 kts | 99° |
| 2026-05-08 18:46 | 53.89801 | 12.42602 | 4893 ft | 178 kts | 140° |
| 2026-05-08 18:47 | 53.88645 | 12.43158 | 5716 ft | 175 kts | 182° |
| 2026-05-08 18:47 | 53.87554 | 12.42265 | 6553 ft | 191 kts | 224° |
| 2026-05-08 18:47 | 53.86841 | 12.40130 | 7392 ft | 226 kts | 248° |
| 2026-05-08 18:47 | 53.86302 | 12.37544 | 8272 ft | 235 kts | 251° |
| 2026-05-08 18:48 | 53.85560 | 12.35083 | 9141 ft | 241 kts | 228° |
| 2026-05-08 18:48 | 53.84149 | 12.33404 | 10055 ft | 257 kts | 206° |
| 2026-05-08 18:48 | 53.82506 | 12.31997 | 10913 ft | 271 kts | 209° |
| 2026-05-08 18:48 | 53.80904 | 12.30188 | 11790 ft | 282 kts | 218° |
| 2026-05-08 18:49 | 53.79280 | 12.28009 | 12693 ft | 320 kts | 219° |
| 2026-05-08 18:49 | 53.77396 | 12.25592 | 14114 ft | 343 kts | 217° |
| 2026-05-08 18:49 | 53.75453 | 12.23265 | 16390 ft | 345 kts | 218° |
| 2026-05-08 18:49 | 53.73473 | 12.20842 | 18275 ft | 357 kts | 218° |
| 2026-05-08 18:50 | 53.71454 | 12.18309 | 19899 ft | 366 kts | 218° |
| 2026-05-08 18:50 | 53.69378 | 12.15726 | 21543 ft | 374 kts | 218° |
| 2026-05-08 18:50 | 53.67250 | 12.13119 | 23131 ft | 382 kts | 218° |
| 2026-05-08 18:50 | 53.65080 | 12.10460 | 24470 ft | 390 kts | 218° |
| 2026-05-08 18:51 | 53.62867 | 12.07735 | 25628 ft | 397 kts | 219° |
| 2026-05-08 18:51 | 53.60587 | 12.04924 | 26193 ft | 420 kts | 219° |
| 2026-05-08 18:51 | 53.58203 | 12.01999 | 26210 ft | 426 kts | 218° |
| 2026-05-08 18:51 | 53.55795 | 11.99068 | 26246 ft | 425 kts | 218° |
| 2026-05-08 18:52 | 53.53420 | 11.96170 | 26592 ft | 418 kts | 219° |
| 2026-05-08 18:52 | 53.51110 | 11.93364 | 27363 ft | 403 kts | 219° |
| 2026-05-08 18:52 | 53.48835 | 11.90574 | 28082 ft | 403 kts | 219° |
| 2026-05-08 18:52 | 53.46593 | 11.87831 | 29696 ft | 396 kts | 219° |
| 2026-05-08 18:53 | 53.44320 | 11.85066 | 30184 ft | 416 kts | 219° |
| 2026-05-08 18:53 | 53.41905 | 11.82133 | 30184 ft | 440 kts | 219° |
| 2026-05-08 18:53 | 53.39369 | 11.79062 | 30185 ft | 457 kts | 218° |
| 2026-05-08 18:53 | 53.36767 | 11.75920 | 30199 ft | 460 kts | 218° |
| 2026-05-08 18:54 | 53.31598 | 11.69680 | 30198 ft | 457 kts | 218° |
| 2026-05-08 18:54 | 53.26448 | 11.63476 | 30194 ft | 456 kts | 218° |
| 2026-05-08 18:55 | 53.18738 | 11.54257 | 30195 ft | 456 kts | 218° |
| 2026-05-08 18:56 | 53.13572 | 11.48068 | 30167 ft | 457 kts | 218° |
| 2026-05-08 18:56 | 53.08405 | 11.41913 | 30168 ft | 457 kts | 218° |
| 2026-05-08 18:57 | 53.03236 | 11.35752 | 30174 ft | 457 kts | 218° |
| 2026-05-08 18:57 | 52.98927 | 11.30663 | 30177 ft | 457 kts | 218° |
| 2026-05-08 18:58 | 52.93748 | 11.24538 | 30174 ft | 457 kts | 218° |
| 2026-05-08 18:58 | 52.88565 | 11.18437 | 30169 ft | 457 kts | 218° |
| 2026-05-08 18:59 | 52.83364 | 11.12346 | 30169 ft | 458 kts | 217° |
| 2026-05-08 18:59 | 52.77752 | 11.07268 | 30168 ft | 460 kts | 210° |
| 2026-05-08 19:00 | 52.72101 | 11.02267 | 30172 ft | 460 kts | 210° |
| 2026-05-08 19:00 | 52.66453 | 10.97324 | 30173 ft | 460 kts | 210° |
| 2026-05-08 19:01 | 52.60801 | 10.92374 | 30176 ft | 460 kts | 210° |
| 2026-05-08 19:01 | 52.55182 | 10.87477 | 30178 ft | 454 kts | 210° |
| 2026-05-08 19:02 | 52.49648 | 10.82661 | 30176 ft | 452 kts | 210° |
| 2026-05-08 19:02 | 52.44091 | 10.77843 | 30173 ft | 451 kts | 210° |
| 2026-05-08 19:03 | 52.38543 | 10.73046 | 30178 ft | 451 kts | 210° |
| 2026-05-08 19:03 | 52.32993 | 10.68258 | 30179 ft | 451 kts | 210° |
| 2026-05-08 19:04 | 52.27440 | 10.63486 | 30179 ft | 451 kts | 210° |
| 2026-05-08 19:04 | 52.21887 | 10.58724 | 30176 ft | 451 kts | 210° |
| 2026-05-08 19:05 | 52.16331 | 10.53975 | 30174 ft | 451 kts | 210° |
| 2026-05-08 19:05 | 52.10770 | 10.49233 | 30173 ft | 451 kts | 210° |
| 2026-05-08 19:06 | 52.05241 | 10.44533 | 30166 ft | 451 kts | 210° |
| 2026-05-08 19:06 | 51.99677 | 10.39818 | 30178 ft | 451 kts | 210° |
| 2026-05-08 19:07 | 51.94117 | 10.35118 | 30178 ft | 451 kts | 210° |
| 2026-05-08 19:07 | 51.88548 | 10.30425 | 30179 ft | 451 kts | 210° |
| 2026-05-08 19:08 | 51.82978 | 10.25740 | 30168 ft | 451 kts | 209° |
| 2026-05-08 19:08 | 51.77407 | 10.21074 | 30173 ft | 452 kts | 209° |
| 2026-05-08 19:09 | 51.71815 | 10.16419 | 30170 ft | 452 kts | 208° |
| 2026-05-08 19:09 | 51.66234 | 10.11761 | 30168 ft | 452 kts | 209° |
| 2026-05-08 19:10 | 51.60649 | 10.07120 | 30158 ft | 452 kts | 208° |
| 2026-05-08 19:10 | 51.55064 | 10.02491 | 30158 ft | 451 kts | 208° |
| 2026-05-08 19:11 | 51.49484 | 9.97877 | 30157 ft | 451 kts | 208° |
| 2026-05-08 19:11 | 51.43902 | 9.93278 | 30155 ft | 451 kts | 208° |
| 2026-05-08 19:12 | 51.38323 | 9.88691 | 30150 ft | 451 kts | 208° |
| 2026-05-08 19:12 | 51.32745 | 9.84119 | 30150 ft | 450 kts | 208° |
| 2026-05-08 19:13 | 51.27175 | 9.79567 | 30148 ft | 450 kts | 208° |
| 2026-05-08 19:13 | 51.24236 | 9.77855 | 30140 ft | 453 kts | 194° |
| 2026-05-08 19:13 | 51.21098 | 9.77358 | 30138 ft | 455 kts | 183° |
| 2026-05-08 19:14 | 51.14760 | 9.77905 | 30143 ft | 456 kts | 177° |
| 2026-05-08 19:14 | 51.08482 | 9.78131 | 30137 ft | 454 kts | 183° |
| 2026-05-08 19:15 | 51.02164 | 9.77960 | 30138 ft | 454 kts | 180° |
| 2026-05-08 19:15 | 50.95840 | 9.78104 | 30138 ft | 454 kts | 182° |
| 2026-05-08 19:16 | 50.89534 | 9.78034 | 30135 ft | 453 kts | 181° |
| 2026-05-08 19:16 | 50.83222 | 9.78107 | 30135 ft | 453 kts | 181° |
| 2026-05-08 19:17 | 50.76920 | 9.78094 | 30140 ft | 453 kts | 181° |
| 2026-05-08 19:17 | 50.70616 | 9.78130 | 30135 ft | 453 kts | 181° |
| 2026-05-08 19:17 | 50.67472 | 9.78137 | 29698 ft | 445 kts | 181° |
| 2026-05-08 19:18 | 50.64401 | 9.78137 | 28792 ft | 444 kts | 181° |
| 2026-05-08 19:18 | 50.61308 | 9.78146 | 27921 ft | 444 kts | 181° |
| 2026-05-08 19:18 | 50.58219 | 9.78162 | 27080 ft | 444 kts | 181° |
| 2026-05-08 19:18 | 50.55136 | 9.78171 | 26254 ft | 442 kts | 181° |
| 2026-05-08 19:19 | 50.52065 | 9.78177 | 25463 ft | 441 kts | 181° |
| 2026-05-08 19:19 | 50.49023 | 9.78193 | 25138 ft | 429 kts | 181° |
| 2026-05-08 19:19 | 50.46021 | 9.78215 | 25124 ft | 437 kts | 181° |
| 2026-05-08 19:19 | 50.42970 | 9.78196 | 25117 ft | 447 kts | 184° |
| 2026-05-08 19:20 | 50.39862 | 9.77481 | 24755 ft | 459 kts | 194° |
| 2026-05-08 19:20 | 50.38814 | 9.77068 | 24558 ft | 461 kts | 196° |
| 2026-05-08 19:20 | 50.33840 | 9.74493 | 24136 ft | 442 kts | 201° |
| 2026-05-08 19:20 | 50.30993 | 9.72799 | 24135 ft | 437 kts | 202° |
| 2026-05-08 19:21 | 50.28159 | 9.71059 | 24130 ft | 439 kts | 203° |
| 2026-05-08 19:21 | 50.25316 | 9.69289 | 24129 ft | 440 kts | 203° |
| 2026-05-08 19:21 | 50.22555 | 9.67235 | 24112 ft | 440 kts | 210° |
| 2026-05-08 19:21 | 50.19939 | 9.64734 | 24110 ft | 441 kts | 214° |
| 2026-05-08 19:22 | 50.17391 | 9.62078 | 24111 ft | 441 kts | 215° |
| 2026-05-08 19:22 | 50.14790 | 9.59529 | 24111 ft | 442 kts | 211° |
| 2026-05-08 19:22 | 50.12090 | 9.57232 | 24110 ft | 443 kts | 209° |
| 2026-05-08 19:22 | 50.09373 | 9.54944 | 24109 ft | 443 kts | 211° |
| 2026-05-08 19:23 | 50.06718 | 9.52509 | 24102 ft | 443 kts | 212° |
| 2026-05-08 19:23 | 50.04083 | 9.50040 | 24103 ft | 443 kts | 212° |
| 2026-05-08 19:23 | 50.01441 | 9.47678 | 24101 ft | 443 kts | 211° |
| 2026-05-08 19:23 | 49.98755 | 9.45339 | 24102 ft | 443 kts | 211° |
| 2026-05-08 19:24 | 49.96074 | 9.42952 | 24106 ft | 443 kts | 211° |
| 2026-05-08 19:24 | 49.93412 | 9.40538 | 24106 ft | 443 kts | 211° |
| 2026-05-08 19:24 | 49.90742 | 9.38145 | 24106 ft | 443 kts | 211° |
| 2026-05-08 19:24 | 49.88062 | 9.35777 | 24107 ft | 444 kts | 211° |
| 2026-05-08 19:25 | 49.85383 | 9.33406 | 24105 ft | 444 kts | 211° |
| 2026-05-08 19:25 | 49.82705 | 9.31019 | 24106 ft | 444 kts | 211° |
| 2026-05-08 19:25 | 49.80030 | 9.28635 | 24097 ft | 444 kts | 211° |
| 2026-05-08 19:25 | 49.77346 | 9.26262 | 24094 ft | 444 kts | 211° |
| 2026-05-08 19:26 | 49.74662 | 9.23896 | 24094 ft | 444 kts | 211° |
| 2026-05-08 19:26 | 49.71986 | 9.21531 | 24095 ft | 443 kts | 211° |
| 2026-05-08 19:26 | 49.69290 | 9.19145 | 23792 ft | 450 kts | 211° |
| 2026-05-08 19:26 | 49.66598 | 9.16771 | 23434 ft | 441 kts | 211° |
| 2026-05-08 19:27 | 49.63959 | 9.14453 | 23042 ft | 433 kts | 211° |
| 2026-05-08 19:27 | 49.61352 | 9.12162 | 22656 ft | 428 kts | 211° |
| 2026-05-08 19:27 | 49.58784 | 9.09902 | 22278 ft | 424 kts | 211° |
| 2026-05-08 19:27 | 49.56227 | 9.07660 | 21901 ft | 421 kts | 211° |
| 2026-05-08 19:28 | 49.53681 | 9.05431 | 21525 ft | 419 kts | 211° |
| 2026-05-08 19:28 | 49.51181 | 9.03245 | 21171 ft | 417 kts | 211° |
| 2026-05-08 19:28 | 49.48666 | 9.01047 | 20804 ft | 416 kts | 211° |
| 2026-05-08 19:28 | 49.46153 | 8.98853 | 20448 ft | 414 kts | 210° |
| 2026-05-08 19:29 | 49.43741 | 8.96466 | 20090 ft | 412 kts | 218° |
| 2026-05-08 19:29 | 49.41618 | 8.93519 | 19731 ft | 411 kts | 225° |
| 2026-05-08 19:29 | 49.39636 | 8.90361 | 19382 ft | 410 kts | 227° |
| 2026-05-08 19:29 | 49.37643 | 8.87249 | 19041 ft | 409 kts | 224° |
| 2026-05-08 19:30 | 49.35501 | 8.84379 | 18699 ft | 409 kts | 220° |
| 2026-05-08 19:30 | 49.33305 | 8.81622 | 18366 ft | 408 kts | 220° |
| 2026-05-08 19:30 | 49.31178 | 8.78744 | 17986 ft | 407 kts | 223° |
| 2026-05-08 19:30 | 49.29099 | 8.75810 | 17620 ft | 406 kts | 224° |
| 2026-05-08 19:31 | 49.27360 | 8.72432 | 17200 ft | 405 kts | 240° |
| 2026-05-08 19:31 | 49.26345 | 8.68414 | 16808 ft | 405 kts | 255° |
| 2026-05-08 19:31 | 49.25794 | 8.64233 | 16445 ft | 392 kts | 260° |
| 2026-05-08 19:31 | 49.25427 | 8.60180 | 16101 ft | 378 kts | 262° |
| 2026-05-08 19:32 | 49.24844 | 8.56327 | 15719 ft | 368 kts | 248° |
| 2026-05-08 19:32 | 49.23509 | 8.53069 | 15330 ft | 360 kts | 228° |
| 2026-05-08 19:32 | 49.21597 | 8.50649 | 14953 ft | 353 kts | 215° |
| 2026-05-08 19:32 | 49.19590 | 8.48666 | 14605 ft | 335 kts | 212° |
| 2026-05-08 19:33 | 49.17645 | 8.46846 | 14263 ft | 321 kts | 213° |
| 2026-05-08 19:33 | 49.15808 | 8.45048 | 13924 ft | 308 kts | 214° |
| 2026-05-08 19:33 | 49.14048 | 8.43275 | 13545 ft | 299 kts | 214° |
| 2026-05-08 19:33 | 49.12303 | 8.41547 | 12938 ft | 299 kts | 214° |
| 2026-05-08 19:34 | 49.10569 | 8.39846 | 12318 ft | 292 kts | 214° |
| 2026-05-08 19:34 | 49.08880 | 8.38187 | 11712 ft | 285 kts | 214° |
| 2026-05-08 19:34 | 49.07211 | 8.36609 | 11108 ft | 280 kts | 210° |
| 2026-05-08 19:34 | 49.05454 | 8.35381 | 10522 ft | 275 kts | 205° |
| 2026-05-08 19:35 | 49.03688 | 8.34302 | 9936 ft | 271 kts | 204° |
| 2026-05-08 19:35 | 49.01943 | 8.33272 | 9301 ft | 268 kts | 203° |
| 2026-05-08 19:35 | 49.00213 | 8.32246 | 8672 ft | 265 kts | 203° |
| 2026-05-08 19:35 | 48.98504 | 8.31213 | 8103 ft | 263 kts | 203° |
| 2026-05-08 19:36 | 48.96860 | 8.30202 | 8061 ft | 253 kts | 203° |
| 2026-05-08 19:36 | 48.95244 | 8.29203 | 8053 ft | 249 kts | 203° |
| 2026-05-08 19:36 | 48.93648 | 8.28218 | 8045 ft | 246 kts | 203° |
| 2026-05-08 19:36 | 48.92057 | 8.27238 | 8045 ft | 248 kts | 203° |
| 2026-05-08 19:37 | 48.90453 | 8.26250 | 8044 ft | 249 kts | 203° |
| 2026-05-08 19:37 | 48.88850 | 8.25261 | 8043 ft | 250 kts | 203° |
| 2026-05-08 19:37 | 48.87234 | 8.24264 | 8040 ft | 251 kts | 203° |
| 2026-05-08 19:37 | 48.85616 | 8.23266 | 8041 ft | 251 kts | 203° |
| 2026-05-08 19:38 | 48.83998 | 8.22267 | 8041 ft | 251 kts | 203° |
| 2026-05-08 19:38 | 48.82372 | 8.21266 | 7938 ft | 256 kts | 203° |
| 2026-05-08 19:38 | 48.80682 | 8.20225 | 7591 ft | 268 kts | 203° |
| 2026-05-08 19:38 | 48.78969 | 8.19156 | 7254 ft | 257 kts | 203° |
| 2026-05-08 19:39 | 48.77377 | 8.18149 | 6908 ft | 239 kts | 203° |
| 2026-05-08 19:39 | 48.75889 | 8.17191 | 6567 ft | 227 kts | 203° |
| 2026-05-08 19:39 | 48.74453 | 8.16252 | 6205 ft | 222 kts | 203° |
| 2026-05-08 19:39 | 48.73056 | 8.15319 | 5990 ft | 213 kts | 203° |
| 2026-05-08 19:40 | 48.71682 | 8.14386 | 5984 ft | 225 kts | 203° |
| 2026-05-08 19:40 | 48.70238 | 8.13403 | 5977 ft | 230 kts | 203° |
| 2026-05-08 19:40 | 48.68765 | 8.12404 | 5986 ft | 234 kts | 203° |
| 2026-05-08 19:40 | 48.67277 | 8.11397 | 5988 ft | 234 kts | 203° |
| 2026-05-08 19:41 | 48.65788 | 8.10390 | 5987 ft | 235 kts | 203° |
| 2026-05-08 19:41 | 48.64296 | 8.09381 | 5991 ft | 235 kts | 204° |
| 2026-05-08 19:41 | 48.62802 | 8.08371 | 5993 ft | 235 kts | 203° |
| 2026-05-08 19:41 | 48.61351 | 8.07216 | 5989 ft | 237 kts | 211° |
| 2026-05-08 19:42 | 48.59949 | 8.05829 | 5726 ft | 247 kts | 212° |
| 2026-05-08 19:42 | 48.58538 | 8.04364 | 5412 ft | 248 kts | 213° |
| 2026-05-08 19:42 | 48.57219 | 8.02958 | 5085 ft | 220 kts | 213° |
| 2026-05-08 19:42 | 48.55984 | 8.01626 | 4751 ft | 219 kts | 213° |
| 2026-05-08 19:43 | 48.55146 | 8.00709 | 4524 ft | 222 kts | 213° |
| 2026-05-08 19:43 | 48.53880 | 7.99333 | 4204 ft | 226 kts | 213° |
| 2026-05-08 19:43 | 48.52617 | 7.97959 | 4006 ft | 227 kts | 213° |
| 2026-05-08 19:43 | 48.51344 | 7.96556 | 3992 ft | 225 kts | 213° |
| 2026-05-08 19:44 | 48.50352 | 7.94733 | 3976 ft | 229 kts | 244° |
| 2026-05-08 19:44 | 48.50154 | 7.92401 | 3976 ft | 226 kts | 278° |
| 2026-05-08 19:44 | 48.50813 | 7.90313 | 3976 ft | 221 kts | 312° |
| 2026-05-08 19:44 | 48.52101 | 7.89128 | 3995 ft | 218 kts | 348° |
| 2026-05-08 19:45 | 48.53601 | 7.88933 | 4002 ft | 217 kts | 2° |
| 2026-05-08 19:45 | 48.55108 | 7.88944 | 4005 ft | 215 kts | 2° |
| 2026-05-08 19:45 | 48.56595 | 7.89026 | 4000 ft | 212 kts | 10° |
| 2026-05-08 19:45 | 48.58007 | 7.89594 | 3997 ft | 208 kts | 26° |
| 2026-05-08 19:46 | 48.59265 | 7.90618 | 3999 ft | 205 kts | 33° |
| 2026-05-08 19:46 | 48.60479 | 7.91736 | 4001 ft | 205 kts | 36° |
| 2026-05-08 19:46 | 48.62989 | 7.94072 | 3613 ft | 217 kts | 35° |
| 2026-05-08 19:47 | 48.64237 | 7.95249 | 3334 ft | 201 kts | 35° |
| 2026-05-08 19:47 | 48.65390 | 7.96323 | 3070 ft | 186 kts | 36° |
| 2026-05-08 19:47 | 48.66412 | 7.97266 | 2830 ft | 162 kts | 36° |
| 2026-05-08 19:47 | 48.67359 | 7.98167 | 2617 ft | 160 kts | 35° |
| 2026-05-08 19:48 | 48.68290 | 7.99025 | 2404 ft | 158 kts | 34° |
| 2026-05-08 19:48 | 48.69268 | 7.99946 | 2188 ft | 170 kts | 33° |
| 2026-05-08 19:48 | 48.70266 | 8.00881 | 1965 ft | 166 kts | 32° |
| 2026-05-08 19:48 | 48.71205 | 8.01750 | 1752 ft | 142 kts | 31° |
| 2026-05-08 19:49 | 48.71942 | 8.02440 | 1571 ft | 117 kts | 32° |
| 2026-05-08 19:49 | 48.72627 | 8.03084 | 1419 ft | 119 kts | 31° |
| 2026-05-08 19:49 | 48.73345 | 8.03756 | 1259 ft | 124 kts | 33° |
| 2026-05-08 19:49 | 48.74079 | 8.04448 | 1093 ft | 124 kts | 34° |
| 2026-05-08 19:50 | 48.74819 | 8.05138 | 949 ft | 129 kts | 32° |
| 2026-05-08 19:50 | 48.75572 | 8.05870 | 716 ft | 140 kts | 34° |
| 2026-05-08 19:50 | 48.76454 | 8.06662 | 569 ft | 133 kts | 30° |
| 2026-05-08 19:50 | 48.77189 | 8.07355 | 411 ft | 111 kts | 31° |
| 2026-05-08 19:51 | 48.77715 | 8.07848 | 410 ft | 50 kts | 31° |
| 2026-05-08 19:51 | 48.77845 | 8.07969 | 409 ft | 15 kts | 34° |
| 2026-05-08 19:51 | 48.77873 | 8.08054 | 410 ft | 11 kts | 129° |
| 2026-05-08 19:51 | 48.77822 | 8.08178 | 410 ft | 12 kts | 121° |
| 2026-05-08 19:52 | 48.77776 | 8.08291 | 410 ft | 15 kts | 122° |
| 2026-05-08 19:52 | 48.77721 | 8.08365 | 410 ft | 10 kts | 211° |
| 2026-05-08 19:52 | 48.77640 | 8.08290 | 410 ft | 18 kts | 212° |
| 2026-05-08 19:52 | 48.77541 | 8.08192 | 410 ft | 16 kts | 218° |
| 2026-05-08 19:53 | 48.77430 | 8.08085 | 410 ft | 18 kts | 211° |
| 2026-05-08 19:53 | 48.77365 | 8.08130 | 410 ft | 14 kts | 120° |
| 2026-05-08 19:53 | 48.77297 | 8.08180 | 410 ft | 8 kts | 208° |
| 2026-05-08 19:53 | 48.77275 | 8.08184 | 410 ft | 0 kts | 131° |